sensor_id;sensor_type;location;lat;lon;timestamp;P1;durP1;ratioP1;P2;durP2;ratioP2
36315;SDS011;22343;50.820;2.666;2023-07-13T00:00:00;12.52;;;4.70;;
36315;SDS011;22343;50.820;2.666;2023-07-13T00:02:45;9.67;;;4.57;;
36315;SDS011;22343;50.820;2.666;2023-07-13T00:05:31;15.00;;;4.60;;
36315;SDS011;22343;50.820;2.666;2023-07-13T00:08:17;11.65;;;4.38;;
36315;SDS011;22343;50.820;2.666;2023-07-13T00:11:03;12.23;;;4.30;;
36315;SDS011;22343;50.820;2.666;2023-07-13T00:13:50;13.43;;;4.85;;
36315;SDS011;22343;50.820;2.666;2023-07-13T00:16:36;12.05;;;4.60;;
36315;SDS011;22343;50.820;2.666;2023-07-13T00:19:22;11.30;;;4.33;;
36315;SDS011;22343;50.820;2.666;2023-07-13T00:22:08;11.55;;;4.30;;
36315;SDS011;22343;50.820;2.666;2023-07-13T00:24:53;12.95;;;4.47;;
36315;SDS011;22343;50.820;2.666;2023-07-13T00:27:41;12.00;;;4.93;;
36315;SDS011;22343;50.820;2.666;2023-07-13T00:30:27;13.30;;;4.57;;
36315;SDS011;22343;50.820;2.666;2023-07-13T00:33:13;12.82;;;4.60;;
36315;SDS011;22343;50.820;2.666;2023-07-13T00:36:02;15.57;;;4.82;;
36315;SDS011;22343;50.820;2.666;2023-07-13T00:38:48;13.63;;;4.90;;
36315;SDS011;22343;50.820;2.666;2023-07-13T00:41:33;10.75;;;4.70;;
36315;SDS011;22343;50.820;2.666;2023-07-13T00:44:19;15.88;;;5.15;;
36315;SDS011;22343;50.820;2.666;2023-07-13T00:47:06;12.52;;;4.70;;
36315;SDS011;22343;50.820;2.666;2023-07-13T00:49:52;11.43;;;4.13;;
36315;SDS011;22343;50.820;2.666;2023-07-13T00:52:38;13.60;;;4.93;;
36315;SDS011;22343;50.820;2.666;2023-07-13T00:55:25;15.43;;;4.63;;
36315;SDS011;22343;50.820;2.666;2023-07-13T00:58:09;15.27;;;4.90;;
36315;SDS011;22343;50.820;2.666;2023-07-13T01:00:56;10.77;;;4.33;;
36315;SDS011;22343;50.820;2.666;2023-07-13T01:03:42;12.47;;;5.20;;
36315;SDS011;22343;50.820;2.666;2023-07-13T01:06:28;16.38;;;4.80;;
36315;SDS011;22343;50.820;2.666;2023-07-13T01:09:16;17.67;;;5.07;;
36315;SDS011;22343;50.820;2.666;2023-07-13T01:12:03;13.18;;;4.93;;
36315;SDS011;22343;50.820;2.666;2023-07-13T01:14:56;13.67;;;4.80;;
36315;SDS011;22343;50.820;2.666;2023-07-13T01:17:41;14.23;;;4.80;;
36315;SDS011;22343;50.820;2.666;2023-07-13T01:20:29;11.27;;;4.60;;
36315;SDS011;22343;50.820;2.666;2023-07-13T01:23:15;17.57;;;5.27;;
36315;SDS011;22343;50.820;2.666;2023-07-13T01:26:00;11.05;;;4.45;;
36315;SDS011;22343;50.820;2.666;2023-07-13T01:28:46;11.83;;;4.70;;
36315;SDS011;22343;50.820;2.666;2023-07-13T01:31:31;12.27;;;4.70;;
36315;SDS011;22343;50.820;2.666;2023-07-13T01:34:17;14.88;;;5.22;;
36315;SDS011;22343;50.820;2.666;2023-07-13T01:37:04;12.52;;;4.78;;
36315;SDS011;22343;50.820;2.666;2023-07-13T01:39:49;11.60;;;4.70;;
36315;SDS011;22343;50.820;2.666;2023-07-13T01:42:34;12.65;;;4.70;;
36315;SDS011;22343;50.820;2.666;2023-07-13T01:45:20;13.00;;;4.68;;
36315;SDS011;22343;50.820;2.666;2023-07-13T01:48:05;14.57;;;4.47;;
36315;SDS011;22343;50.820;2.666;2023-07-13T01:50:54;11.48;;;4.57;;
36315;SDS011;22343;50.820;2.666;2023-07-13T01:53:38;13.18;;;4.97;;
36315;SDS011;22343;50.820;2.666;2023-07-13T01:56:24;14.93;;;5.15;;
36315;SDS011;22343;50.820;2.666;2023-07-13T01:59:09;16.42;;;5.28;;
36315;SDS011;22343;50.820;2.666;2023-07-13T02:01:55;11.77;;;5.40;;
36315;SDS011;22343;50.820;2.666;2023-07-13T02:04:40;16.42;;;5.10;;
36315;SDS011;22343;50.820;2.666;2023-07-13T02:07:26;14.75;;;4.78;;
36315;SDS011;22343;50.820;2.666;2023-07-13T02:10:13;12.27;;;5.00;;
36315;SDS011;22343;50.820;2.666;2023-07-13T02:12:59;12.48;;;4.60;;
36315;SDS011;22343;50.820;2.666;2023-07-13T02:15:44;11.17;;;4.57;;
36315;SDS011;22343;50.820;2.666;2023-07-13T02:18:28;11.50;;;4.72;;
36315;SDS011;22343;50.820;2.666;2023-07-13T02:21:14;13.53;;;4.90;;
36315;SDS011;22343;50.820;2.666;2023-07-13T02:24:00;14.70;;;4.90;;
36315;SDS011;22343;50.820;2.666;2023-07-13T02:26:46;16.33;;;5.10;;
36315;SDS011;22343;50.820;2.666;2023-07-13T02:29:32;9.88;;;4.60;;
36315;SDS011;22343;50.820;2.666;2023-07-13T02:32:18;14.27;;;5.10;;
36315;SDS011;22343;50.820;2.666;2023-07-13T02:35:03;11.57;;;4.95;;
36315;SDS011;22343;50.820;2.666;2023-07-13T02:37:48;13.67;;;4.87;;
36315;SDS011;22343;50.820;2.666;2023-07-13T02:40:34;10.55;;;4.60;;
36315;SDS011;22343;50.820;2.666;2023-07-13T02:43:21;14.57;;;4.88;;
36315;SDS011;22343;50.820;2.666;2023-07-13T02:46:07;11.93;;;4.80;;
36315;SDS011;22343;50.820;2.666;2023-07-13T02:48:52;12.40;;;4.47;;
36315;SDS011;22343;50.820;2.666;2023-07-13T02:51:38;12.93;;;4.32;;
36315;SDS011;22343;50.820;2.666;2023-07-13T02:54:24;9.15;;;4.25;;
36315;SDS011;22343;50.820;2.666;2023-07-13T02:57:10;11.55;;;4.47;;
36315;SDS011;22343;50.820;2.666;2023-07-13T02:59:55;16.05;;;5.78;;
36315;SDS011;22343;50.820;2.666;2023-07-13T03:02:40;10.03;;;4.40;;
36315;SDS011;22343;50.820;2.666;2023-07-13T03:05:26;17.80;;;5.10;;
36315;SDS011;22343;50.820;2.666;2023-07-13T03:08:12;13.07;;;5.30;;
36315;SDS011;22343;50.820;2.666;2023-07-13T03:11:04;12.13;;;4.72;;
36315;SDS011;22343;50.820;2.666;2023-07-13T03:13:52;12.57;;;5.00;;
36315;SDS011;22343;50.820;2.666;2023-07-13T03:16:38;11.97;;;5.03;;
36315;SDS011;22343;50.820;2.666;2023-07-13T03:19:24;15.87;;;5.77;;
36315;SDS011;22343;50.820;2.666;2023-07-13T03:22:09;12.57;;;4.72;;
36315;SDS011;22343;50.820;2.666;2023-07-13T03:24:55;14.07;;;5.60;;
36315;SDS011;22343;50.820;2.666;2023-07-13T03:27:40;13.25;;;5.38;;
36315;SDS011;22343;50.820;2.666;2023-07-13T03:30:25;14.18;;;5.32;;
36315;SDS011;22343;50.820;2.666;2023-07-13T03:33:11;13.43;;;5.40;;
36315;SDS011;22343;50.820;2.666;2023-07-13T03:35:57;12.30;;;5.22;;
36315;SDS011;22343;50.820;2.666;2023-07-13T03:38:42;13.63;;;5.20;;
36315;SDS011;22343;50.820;2.666;2023-07-13T03:41:26;13.30;;;5.37;;
36315;SDS011;22343;50.820;2.666;2023-07-13T03:44:12;12.63;;;4.80;;
36315;SDS011;22343;50.820;2.666;2023-07-13T03:46:57;12.48;;;5.20;;
36315;SDS011;22343;50.820;2.666;2023-07-13T03:49:43;14.00;;;5.70;;
36315;SDS011;22343;50.820;2.666;2023-07-13T03:52:28;12.88;;;4.88;;
36315;SDS011;22343;50.820;2.666;2023-07-13T03:55:14;15.48;;;5.28;;
36315;SDS011;22343;50.820;2.666;2023-07-13T03:58:01;14.63;;;5.20;;
36315;SDS011;22343;50.820;2.666;2023-07-13T04:01:09;12.90;;;5.20;;
36315;SDS011;22343;50.820;2.666;2023-07-13T04:03:55;12.77;;;4.97;;
36315;SDS011;22343;50.820;2.666;2023-07-13T04:06:41;14.75;;;4.90;;
36315;SDS011;22343;50.820;2.666;2023-07-13T04:09:26;11.70;;;5.43;;
36315;SDS011;22343;50.820;2.666;2023-07-13T04:12:11;10.93;;;5.07;;
36315;SDS011;22343;50.820;2.666;2023-07-13T04:14:57;14.68;;;4.93;;
36315;SDS011;22343;50.820;2.666;2023-07-13T04:17:41;15.43;;;5.63;;
36315;SDS011;22343;50.820;2.666;2023-07-13T04:20:27;13.05;;;4.95;;
36315;SDS011;22343;50.820;2.666;2023-07-13T04:23:14;13.98;;;4.90;;
36315;SDS011;22343;50.820;2.666;2023-07-13T04:26:01;11.40;;;4.57;;
36315;SDS011;22343;50.820;2.666;2023-07-13T04:28:46;14.60;;;4.50;;
36315;SDS011;22343;50.820;2.666;2023-07-13T04:31:33;12.43;;;5.00;;
36315;SDS011;22343;50.820;2.666;2023-07-13T04:34:19;12.77;;;4.78;;
36315;SDS011;22343;50.820;2.666;2023-07-13T04:37:05;13.60;;;4.80;;
36315;SDS011;22343;50.820;2.666;2023-07-13T04:39:50;10.13;;;5.00;;
36315;SDS011;22343;50.820;2.666;2023-07-13T04:42:36;14.00;;;4.75;;
36315;SDS011;22343;50.820;2.666;2023-07-13T04:45:20;16.50;;;5.22;;
36315;SDS011;22343;50.820;2.666;2023-07-13T04:48:06;14.40;;;4.97;;
36315;SDS011;22343;50.820;2.666;2023-07-13T04:50:57;12.25;;;4.53;;
36315;SDS011;22343;50.820;2.666;2023-07-13T04:53:43;13.63;;;5.03;;
36315;SDS011;22343;50.820;2.666;2023-07-13T04:56:28;14.38;;;5.30;;
36315;SDS011;22343;50.820;2.666;2023-07-13T04:59:15;14.32;;;4.88;;
36315;SDS011;22343;50.820;2.666;2023-07-13T05:02:01;12.43;;;5.00;;
36315;SDS011;22343;50.820;2.666;2023-07-13T05:04:49;12.60;;;5.22;;
36315;SDS011;22343;50.820;2.666;2023-07-13T05:07:35;13.50;;;5.30;;
36315;SDS011;22343;50.820;2.666;2023-07-13T05:10:21;14.23;;;5.43;;
36315;SDS011;22343;50.820;2.666;2023-07-13T05:13:07;15.40;;;5.22;;
36315;SDS011;22343;50.820;2.666;2023-07-13T05:15:59;13.20;;;5.15;;
36315;SDS011;22343;50.820;2.666;2023-07-13T05:18:53;12.77;;;5.35;;
36315;SDS011;22343;50.820;2.666;2023-07-13T05:21:39;12.48;;;5.22;;
36315;SDS011;22343;50.820;2.666;2023-07-13T05:24:26;12.75;;;5.13;;
36315;SDS011;22343;50.820;2.666;2023-07-13T05:27:13;12.52;;;5.22;;
36315;SDS011;22343;50.820;2.666;2023-07-13T05:29:58;14.85;;;5.82;;
36315;SDS011;22343;50.820;2.666;2023-07-13T05:32:44;13.50;;;4.82;;
36315;SDS011;22343;50.820;2.666;2023-07-13T05:35:31;14.88;;;5.13;;
36315;SDS011;22343;50.820;2.666;2023-07-13T05:38:16;12.80;;;4.80;;
36315;SDS011;22343;50.820;2.666;2023-07-13T05:41:01;10.77;;;5.00;;
36315;SDS011;22343;50.820;2.666;2023-07-13T05:43:47;13.57;;;5.25;;
36315;SDS011;22343;50.820;2.666;2023-07-13T05:46:33;12.98;;;5.07;;
36315;SDS011;22343;50.820;2.666;2023-07-13T05:49:19;12.15;;;4.60;;
36315;SDS011;22343;50.820;2.666;2023-07-13T05:52:05;12.98;;;4.88;;
36315;SDS011;22343;50.820;2.666;2023-07-13T05:54:49;13.10;;;4.93;;
36315;SDS011;22343;50.820;2.666;2023-07-13T05:57:35;10.18;;;5.00;;
36315;SDS011;22343;50.820;2.666;2023-07-13T06:00:20;18.63;;;9.75;;
36315;SDS011;22343;50.820;2.666;2023-07-13T06:03:06;14.93;;;5.00;;
36315;SDS011;22343;50.820;2.666;2023-07-13T06:05:51;12.15;;;5.20;;
36315;SDS011;22343;50.820;2.666;2023-07-13T06:08:37;15.93;;;5.60;;
36315;SDS011;22343;50.820;2.666;2023-07-13T06:11:23;13.48;;;5.38;;
36315;SDS011;22343;50.820;2.666;2023-07-13T06:14:10;14.02;;;6.38;;
36315;SDS011;22343;50.820;2.666;2023-07-13T06:16:55;11.65;;;5.13;;
36315;SDS011;22343;50.820;2.666;2023-07-13T06:19:40;13.27;;;4.75;;
36315;SDS011;22343;50.820;2.666;2023-07-13T06:22:26;13.07;;;4.60;;
36315;SDS011;22343;50.820;2.666;2023-07-13T06:25:12;11.48;;;4.65;;
36315;SDS011;22343;50.820;2.666;2023-07-13T06:27:56;16.60;;;5.35;;
36315;SDS011;22343;50.820;2.666;2023-07-13T06:30:42;13.48;;;5.00;;
36315;SDS011;22343;50.820;2.666;2023-07-13T06:33:27;12.70;;;4.75;;
36315;SDS011;22343;50.820;2.666;2023-07-13T06:36:13;11.82;;;5.53;;
36315;SDS011;22343;50.820;2.666;2023-07-13T06:38:58;12.40;;;5.13;;
36315;SDS011;22343;50.820;2.666;2023-07-13T06:41:43;12.85;;;5.28;;
36315;SDS011;22343;50.820;2.666;2023-07-13T06:44:28;11.43;;;5.15;;
36315;SDS011;22343;50.820;2.666;2023-07-13T06:47:14;11.60;;;5.28;;
36315;SDS011;22343;50.820;2.666;2023-07-13T06:50:00;9.82;;;4.97;;
36315;SDS011;22343;50.820;2.666;2023-07-13T06:52:46;10.82;;;5.13;;
36315;SDS011;22343;50.820;2.666;2023-07-13T06:55:31;12.95;;;5.25;;
36315;SDS011;22343;50.820;2.666;2023-07-13T06:58:17;11.85;;;4.50;;
36315;SDS011;22343;50.820;2.666;2023-07-13T07:01:03;13.10;;;4.90;;
36315;SDS011;22343;50.820;2.666;2023-07-13T07:03:49;12.68;;;4.85;;
36315;SDS011;22343;50.820;2.666;2023-07-13T07:06:35;9.10;;;4.78;;
36315;SDS011;22343;50.820;2.666;2023-07-13T07:09:20;11.32;;;4.13;;
36315;SDS011;22343;50.820;2.666;2023-07-13T07:12:06;7.90;;;4.38;;
36315;SDS011;22343;50.820;2.666;2023-07-13T07:14:52;11.27;;;4.50;;
36315;SDS011;22343;50.820;2.666;2023-07-13T07:17:37;11.65;;;4.60;;
36315;SDS011;22343;50.820;2.666;2023-07-13T07:20:23;11.13;;;4.63;;
36315;SDS011;22343;50.820;2.666;2023-07-13T07:23:09;11.35;;;4.53;;
36315;SDS011;22343;50.820;2.666;2023-07-13T07:25:55;13.30;;;4.50;;
36315;SDS011;22343;50.820;2.666;2023-07-13T07:28:40;11.40;;;4.18;;
36315;SDS011;22343;50.820;2.666;2023-07-13T07:31:26;11.48;;;4.55;;
36315;SDS011;22343;50.820;2.666;2023-07-13T07:34:11;11.15;;;4.53;;
36315;SDS011;22343;50.820;2.666;2023-07-13T07:37:01;10.48;;;4.20;;
36315;SDS011;22343;50.820;2.666;2023-07-13T07:39:47;9.50;;;3.95;;
36315;SDS011;22343;50.820;2.666;2023-07-13T07:42:32;8.50;;;4.20;;
36315;SDS011;22343;50.820;2.666;2023-07-13T07:45:18;8.57;;;3.95;;
36315;SDS011;22343;50.820;2.666;2023-07-13T07:48:05;11.05;;;4.82;;
36315;SDS011;22343;50.820;2.666;2023-07-13T07:50:51;9.02;;;4.00;;
36315;SDS011;22343;50.820;2.666;2023-07-13T07:53:35;9.40;;;4.03;;
36315;SDS011;22343;50.820;2.666;2023-07-13T07:56:20;7.53;;;3.97;;
36315;SDS011;22343;50.820;2.666;2023-07-13T07:59:05;9.65;;;3.97;;
36315;SDS011;22343;50.820;2.666;2023-07-13T08:01:51;8.35;;;4.25;;
36315;SDS011;22343;50.820;2.666;2023-07-13T08:04:37;9.10;;;3.78;;
36315;SDS011;22343;50.820;2.666;2023-07-13T08:07:23;7.40;;;3.88;;
36315;SDS011;22343;50.820;2.666;2023-07-13T08:10:07;9.38;;;3.83;;
36315;SDS011;22343;50.820;2.666;2023-07-13T08:12:53;8.57;;;3.95;;
36315;SDS011;22343;50.820;2.666;2023-07-13T08:15:39;8.15;;;3.28;;
36315;SDS011;22343;50.820;2.666;2023-07-13T08:18:25;5.85;;;3.30;;
36315;SDS011;22343;50.820;2.666;2023-07-13T08:21:10;6.32;;;3.30;;
36315;SDS011;22343;50.820;2.666;2023-07-13T08:23:56;8.00;;;3.40;;
36315;SDS011;22343;50.820;2.666;2023-07-13T08:26:40;7.10;;;3.53;;
36315;SDS011;22343;50.820;2.666;2023-07-13T08:29:26;8.73;;;3.92;;
36315;SDS011;22343;50.820;2.666;2023-07-13T08:32:12;8.65;;;3.47;;
36315;SDS011;22343;50.820;2.666;2023-07-13T08:34:57;6.88;;;3.40;;
36315;SDS011;22343;50.820;2.666;2023-07-13T08:37:42;7.72;;;3.50;;
36315;SDS011;22343;50.820;2.666;2023-07-13T08:40:29;7.03;;;3.05;;
36315;SDS011;22343;50.820;2.666;2023-07-13T08:43:16;5.90;;;3.40;;
36315;SDS011;22343;50.820;2.666;2023-07-13T08:49:17;7.47;;;3.20;;
36315;SDS011;22343;50.820;2.666;2023-07-13T08:55:18;7.72;;;3.47;;
36315;SDS011;22343;50.820;2.666;2023-07-13T08:58:09;6.15;;;3.33;;
36315;SDS011;22343;50.820;2.666;2023-07-13T09:04:14;7.60;;;3.35;;
36315;SDS011;22343;50.820;2.666;2023-07-13T09:10:37;5.05;;;3.13;;
36315;SDS011;22343;50.820;2.666;2023-07-13T09:16:15;10.00;;;6.50;;
36315;SDS011;22343;50.820;2.666;2023-07-13T09:19:02;4.97;;;3.38;;
36315;SDS011;22343;50.820;2.666;2023-07-13T09:21:49;3.88;;;2.70;;
36315;SDS011;22343;50.820;2.666;2023-07-13T09:25:21;3.90;;;3.00;;
36315;SDS011;22343;50.820;2.666;2023-07-13T09:27:46;5.25;;;3.10;;
36315;SDS011;22343;50.820;2.666;2023-07-13T09:33:40;5.85;;;3.00;;
36315;SDS011;22343;50.820;2.666;2023-07-13T09:36:30;4.25;;;3.00;;
36315;SDS011;22343;50.820;2.666;2023-07-13T09:42:23;5.75;;;3.17;;
36315;SDS011;22343;50.820;2.666;2023-07-13T09:45:11;4.95;;;3.35;;
36315;SDS011;22343;50.820;2.666;2023-07-13T09:48:07;6.22;;;3.50;;
36315;SDS011;22343;50.820;2.666;2023-07-13T09:50:58;5.55;;;3.65;;
36315;SDS011;22343;50.820;2.666;2023-07-13T09:53:53;6.70;;;3.38;;
36315;SDS011;22343;50.820;2.666;2023-07-13T09:56:39;7.07;;;3.28;;
36315;SDS011;22343;50.820;2.666;2023-07-13T09:59:36;4.47;;;3.00;;
36315;SDS011;22343;50.820;2.666;2023-07-13T10:02:29;6.10;;;3.05;;
36315;SDS011;22343;50.820;2.666;2023-07-13T10:05:16;7.32;;;3.13;;
36315;SDS011;22343;50.820;2.666;2023-07-13T10:08:00;6.20;;;2.80;;
36315;SDS011;22343;50.820;2.666;2023-07-13T10:10:47;5.90;;;2.83;;
36315;SDS011;22343;50.820;2.666;2023-07-13T10:13:50;5.97;;;2.90;;
36315;SDS011;22343;50.820;2.666;2023-07-13T10:16:56;5.60;;;2.70;;
36315;SDS011;22343;50.820;2.666;2023-07-13T10:19:49;3.80;;;2.50;;
36315;SDS011;22343;50.820;2.666;2023-07-13T10:25:48;3.97;;;2.65;;
36315;SDS011;22343;50.820;2.666;2023-07-13T10:28:35;3.78;;;2.60;;
36315;SDS011;22343;50.820;2.666;2023-07-13T10:31:22;3.92;;;2.60;;
36315;SDS011;22343;50.820;2.666;2023-07-13T10:34:09;4.90;;;2.65;;
36315;SDS011;22343;50.820;2.666;2023-07-13T10:36:57;4.60;;;2.30;;
36315;SDS011;22343;50.820;2.666;2023-07-13T10:39:43;3.67;;;2.50;;
36315;SDS011;22343;50.820;2.666;2023-07-13T10:42:30;4.38;;;2.50;;
36315;SDS011;22343;50.820;2.666;2023-07-13T10:45:20;5.68;;;2.65;;
36315;SDS011;22343;50.820;2.666;2023-07-13T10:48:05;3.95;;;2.33;;
36315;SDS011;22343;50.820;2.666;2023-07-13T10:50:52;6.15;;;2.60;;
36315;SDS011;22343;50.820;2.666;2023-07-13T10:53:38;3.95;;;2.50;;
36315;SDS011;22343;50.820;2.666;2023-07-13T10:59:28;3.85;;;2.40;;
36315;SDS011;22343;50.820;2.666;2023-07-13T11:02:27;4.05;;;2.30;;
36315;SDS011;22343;50.820;2.666;2023-07-13T11:05:35;3.95;;;2.88;;
36315;SDS011;22343;50.820;2.666;2023-07-13T11:17:50;2.45;;;2.20;;
36315;SDS011;22343;50.820;2.666;2023-07-13T11:20:44;3.83;;;2.30;;
36315;SDS011;22343;50.820;2.666;2023-07-13T11:23:30;3.78;;;2.05;;
36315;SDS011;22343;50.820;2.666;2023-07-13T11:29:38;4.07;;;2.30;;
36315;SDS011;22343;50.820;2.666;2023-07-13T11:32:25;3.83;;;2.78;;
36315;SDS011;22343;50.820;2.666;2023-07-13T11:35:23;3.80;;;2.50;;
36315;SDS011;22343;50.820;2.666;2023-07-13T11:38:13;4.57;;;2.33;;
36315;SDS011;22343;50.820;2.666;2023-07-13T11:41:16;4.30;;;2.30;;
36315;SDS011;22343;50.820;2.666;2023-07-13T11:44:07;5.10;;;2.42;;
36315;SDS011;22343;50.820;2.666;2023-07-13T11:46:58;4.47;;;2.50;;
36315;SDS011;22343;50.820;2.666;2023-07-13T11:49:50;4.50;;;2.40;;
36315;SDS011;22343;50.820;2.666;2023-07-13T11:52:38;5.18;;;2.53;;
36315;SDS011;22343;50.820;2.666;2023-07-13T11:55:23;4.00;;;2.35;;
36315;SDS011;22343;50.820;2.666;2023-07-13T11:58:10;5.93;;;2.58;;
36315;SDS011;22343;50.820;2.666;2023-07-13T12:00:55;3.33;;;2.60;;
36315;SDS011;22343;50.820;2.666;2023-07-13T12:03:46;2.88;;;2.00;;
36315;SDS011;22343;50.820;2.666;2023-07-13T12:06:33;4.88;;;2.40;;
36315;SDS011;22343;50.820;2.666;2023-07-13T12:09:22;3.78;;;2.38;;
36315;SDS011;22343;50.820;2.666;2023-07-13T12:12:16;3.33;;;2.25;;
36315;SDS011;22343;50.820;2.666;2023-07-13T12:15:07;2.22;;;2.00;;
36315;SDS011;22343;50.820;2.666;2023-07-13T12:17:53;3.10;;;2.35;;
36315;SDS011;22343;50.820;2.666;2023-07-13T12:20:41;2.60;;;2.10;;
36315;SDS011;22343;50.820;2.666;2023-07-13T12:26:31;3.75;;;2.22;;
36315;SDS011;22343;50.820;2.666;2023-07-13T12:29:17;2.83;;;2.00;;
36315;SDS011;22343;50.820;2.666;2023-07-13T12:32:08;3.40;;;2.30;;
36315;SDS011;22343;50.820;2.666;2023-07-13T12:38:04;2.80;;;2.03;;
36315;SDS011;22343;50.820;2.666;2023-07-13T12:40:54;3.00;;;2.03;;
36315;SDS011;22343;50.820;2.666;2023-07-13T12:43:40;5.43;;;2.30;;
36315;SDS011;22343;50.820;2.666;2023-07-13T12:46:24;3.95;;;2.08;;
36315;SDS011;22343;50.820;2.666;2023-07-13T12:49:14;3.60;;;2.05;;
36315;SDS011;22343;50.820;2.666;2023-07-13T12:52:01;4.75;;;2.15;;
36315;SDS011;22343;50.820;2.666;2023-07-13T12:54:58;4.13;;;2.10;;
36315;SDS011;22343;50.820;2.666;2023-07-13T13:00:51;6.07;;;2.22;;
36315;SDS011;22343;50.820;2.666;2023-07-13T13:03:40;3.42;;;2.00;;
36315;SDS011;22343;50.820;2.666;2023-07-13T13:06:31;4.60;;;2.05;;
36315;SDS011;22343;50.820;2.666;2023-07-13T13:09:17;4.70;;;2.10;;
36315;SDS011;22343;50.820;2.666;2023-07-13T13:12:14;3.00;;;2.20;;
36315;SDS011;22343;50.820;2.666;2023-07-13T13:15:01;2.85;;;1.80;;
36315;SDS011;22343;50.820;2.666;2023-07-13T13:17:47;4.57;;;2.17;;
36315;SDS011;22343;50.820;2.666;2023-07-13T13:20:32;3.60;;;2.17;;
36315;SDS011;22343;50.820;2.666;2023-07-13T13:23:17;5.00;;;2.40;;
36315;SDS011;22343;50.820;2.666;2023-07-13T13:26:08;2.92;;;2.00;;
36315;SDS011;22343;50.820;2.666;2023-07-13T13:28:54;4.22;;;2.20;;
36315;SDS011;22343;50.820;2.666;2023-07-13T13:31:40;3.67;;;2.10;;
36315;SDS011;22343;50.820;2.666;2023-07-13T13:34:27;4.10;;;1.88;;
36315;SDS011;22343;50.820;2.666;2023-07-13T13:37:15;3.83;;;2.05;;
36315;SDS011;22343;50.820;2.666;2023-07-13T13:40:19;4.90;;;2.17;;
36315;SDS011;22343;50.820;2.666;2023-07-13T13:46:01;3.08;;;2.00;;
36315;SDS011;22343;50.820;2.666;2023-07-13T13:48:47;5.63;;;2.20;;
36315;SDS011;22343;50.820;2.666;2023-07-13T13:51:32;4.97;;;2.33;;
36315;SDS011;22343;50.820;2.666;2023-07-13T13:54:17;4.93;;;2.20;;
36315;SDS011;22343;50.820;2.666;2023-07-13T13:57:04;3.40;;;2.15;;
36315;SDS011;22343;50.820;2.666;2023-07-13T13:59:50;3.88;;;2.33;;
36315;SDS011;22343;50.820;2.666;2023-07-13T14:02:34;2.50;;;2.13;;
36315;SDS011;22343;50.820;2.666;2023-07-13T14:05:21;3.58;;;2.15;;
36315;SDS011;22343;50.820;2.666;2023-07-13T14:08:18;3.33;;;2.15;;
36315;SDS011;22343;50.820;2.666;2023-07-13T14:11:05;3.28;;;2.10;;
36315;SDS011;22343;50.820;2.666;2023-07-13T14:13:54;2.75;;;2.10;;
36315;SDS011;22343;50.820;2.666;2023-07-13T14:16:40;3.72;;;2.10;;
36315;SDS011;22343;50.820;2.666;2023-07-13T14:19:28;3.45;;;2.00;;
36315;SDS011;22343;50.820;2.666;2023-07-13T14:22:12;3.60;;;2.10;;
36315;SDS011;22343;50.820;2.666;2023-07-13T14:24:58;7.30;;;2.13;;
36315;SDS011;22343;50.820;2.666;2023-07-13T14:27:45;5.57;;;2.00;;
36315;SDS011;22343;50.820;2.666;2023-07-13T14:30:34;3.40;;;2.28;;
36315;SDS011;22343;50.820;2.666;2023-07-13T14:33:20;4.95;;;2.10;;
36315;SDS011;22343;50.820;2.666;2023-07-13T14:36:21;3.20;;;1.92;;
36315;SDS011;22343;50.820;2.666;2023-07-13T14:39:24;3.38;;;2.00;;
36315;SDS011;22343;50.820;2.666;2023-07-13T14:42:09;3.47;;;2.05;;
36315;SDS011;22343;50.820;2.666;2023-07-13T14:44:55;3.50;;;1.90;;
36315;SDS011;22343;50.820;2.666;2023-07-13T14:47:41;2.17;;;1.70;;
36315;SDS011;22343;50.820;2.666;2023-07-13T14:50:32;2.78;;;2.03;;
36315;SDS011;22343;50.820;2.666;2023-07-13T14:53:20;2.33;;;1.70;;
36315;SDS011;22343;50.820;2.666;2023-07-13T14:56:12;3.90;;;2.00;;
36315;SDS011;22343;50.820;2.666;2023-07-13T14:58:58;9.60;;;2.20;;
36315;SDS011;22343;50.820;2.666;2023-07-13T15:01:43;3.45;;;1.70;;
36315;SDS011;22343;50.820;2.666;2023-07-13T15:04:29;2.28;;;1.90;;
36315;SDS011;22343;50.820;2.666;2023-07-13T15:07:15;4.00;;;2.05;;
36315;SDS011;22343;50.820;2.666;2023-07-13T15:10:04;2.00;;;1.80;;
36315;SDS011;22343;50.820;2.666;2023-07-13T15:16:18;2.10;;;1.80;;
36315;SDS011;22343;50.820;2.666;2023-07-13T15:19:08;3.72;;;1.70;;
36315;SDS011;22343;50.820;2.666;2023-07-13T15:21:55;2.65;;;1.80;;
36315;SDS011;22343;50.820;2.666;2023-07-13T15:24:43;4.47;;;1.90;;
36315;SDS011;22343;50.820;2.666;2023-07-13T15:27:27;3.40;;;1.60;;
36315;SDS011;22343;50.820;2.666;2023-07-13T15:30:14;3.30;;;2.10;;
36315;SDS011;22343;50.820;2.666;2023-07-13T15:33:05;7.18;;;2.00;;
36315;SDS011;22343;50.820;2.666;2023-07-13T15:35:58;2.40;;;1.80;;
36315;SDS011;22343;50.820;2.666;2023-07-13T15:38:43;3.30;;;2.30;;
36315;SDS011;22343;50.820;2.666;2023-07-13T15:41:33;8.43;;;2.40;;
36315;SDS011;22343;50.820;2.666;2023-07-13T15:44:25;3.00;;;2.00;;
36315;SDS011;22343;50.820;2.666;2023-07-13T15:47:12;9.75;;;2.42;;
36315;SDS011;22343;50.820;2.666;2023-07-13T15:49:59;9.07;;;2.35;;
36315;SDS011;22343;50.820;2.666;2023-07-13T15:52:46;3.70;;;1.95;;
36315;SDS011;22343;50.820;2.666;2023-07-13T15:55:34;4.15;;;2.05;;
36315;SDS011;22343;50.820;2.666;2023-07-13T15:58:23;3.75;;;2.20;;
36315;SDS011;22343;50.820;2.666;2023-07-13T16:01:10;3.40;;;2.05;;
36315;SDS011;22343;50.820;2.666;2023-07-13T16:03:56;4.43;;;2.03;;
36315;SDS011;22343;50.820;2.666;2023-07-13T16:06:41;2.88;;;1.88;;
36315;SDS011;22343;50.820;2.666;2023-07-13T16:09:27;3.13;;;2.22;;
36315;SDS011;22343;50.820;2.666;2023-07-13T16:12:13;5.97;;;2.08;;
36315;SDS011;22343;50.820;2.666;2023-07-13T16:15:00;3.58;;;2.40;;
36315;SDS011;22343;50.820;2.666;2023-07-13T16:17:46;4.53;;;2.00;;
36315;SDS011;22343;50.820;2.666;2023-07-13T16:20:32;3.67;;;1.77;;
36315;SDS011;22343;50.820;2.666;2023-07-13T16:23:18;5.47;;;2.03;;
36315;SDS011;22343;50.820;2.666;2023-07-13T16:26:20;2.67;;;2.10;;
36315;SDS011;22343;50.820;2.666;2023-07-13T16:29:25;3.03;;;2.00;;
36315;SDS011;22343;50.820;2.666;2023-07-13T16:32:13;3.15;;;1.90;;
36315;SDS011;22343;50.820;2.666;2023-07-13T16:34:59;2.67;;;1.77;;
36315;SDS011;22343;50.820;2.666;2023-07-13T16:37:45;2.88;;;1.70;;
36315;SDS011;22343;50.820;2.666;2023-07-13T16:40:31;2.88;;;1.80;;
36315;SDS011;22343;50.820;2.666;2023-07-13T16:43:19;9.00;;;2.33;;
36315;SDS011;22343;50.820;2.666;2023-07-13T16:46:07;2.42;;;1.70;;
36315;SDS011;22343;50.820;2.666;2023-07-13T16:48:53;9.27;;;2.58;;
36315;SDS011;22343;50.820;2.666;2023-07-13T16:51:39;3.00;;;1.95;;
36315;SDS011;22343;50.820;2.666;2023-07-13T16:54:24;2.83;;;1.80;;
36315;SDS011;22343;50.820;2.666;2023-07-13T16:57:19;4.55;;;1.90;;
36315;SDS011;22343;50.820;2.666;2023-07-13T17:00:20;4.68;;;2.00;;
36315;SDS011;22343;50.820;2.666;2023-07-13T17:03:25;4.40;;;2.00;;
36315;SDS011;22343;50.820;2.666;2023-07-13T17:06:30;5.03;;;2.05;;
36315;SDS011;22343;50.820;2.666;2023-07-13T17:09:14;3.53;;;2.13;;
36315;SDS011;22343;50.820;2.666;2023-07-13T17:11:59;3.60;;;2.25;;
36315;SDS011;22343;50.820;2.666;2023-07-13T17:14:45;2.17;;;1.80;;
36315;SDS011;22343;50.820;2.666;2023-07-13T17:17:33;3.00;;;2.38;;
36315;SDS011;22343;50.820;2.666;2023-07-13T17:23:28;4.53;;;1.92;;
36315;SDS011;22343;50.820;2.666;2023-07-13T17:26:14;5.22;;;2.00;;
36315;SDS011;22343;50.820;2.666;2023-07-13T17:29:01;5.07;;;1.90;;
36315;SDS011;22343;50.820;2.666;2023-07-13T17:31:49;4.13;;;2.20;;
36315;SDS011;22343;50.820;2.666;2023-07-13T17:34:38;2.78;;;1.83;;
36315;SDS011;22343;50.820;2.666;2023-07-13T17:37:29;3.17;;;2.10;;
36315;SDS011;22343;50.820;2.666;2023-07-13T17:40:15;4.47;;;2.20;;